Time;durP1;ratioP1;P1;durP2;ratioP2;P2;SDS_P1;SDS_P2;PMS_P1;PMS_P2;Temp;Humidity;BMP_temperature;BMP_pressure;BME280_temperature;BME280_humidity;BME280_pressure;Samples;Min_cycle;Max_cycle;Signal;HPM_P1;HPM_P2
2022/10/11 00:02:16;;;;;;;3.40;1.60;;;;;;;-145.18;100.00;46654.53;6182911;23;20005;-68
2022/10/11 00:04:41;;;;;;;3.90;2.30;;;;;;;-145.18;100.00;46650.63;6183285;23;20012;-68
2022/10/11 00:07:07;;;;;;;5.47;2.20;;;;;;;-145.18;100.00;46654.53;6183210;23;20503;-68
2022/10/11 00:09:33;;;;;;;7.73;3.10;;;;;;;-145.18;100.00;46656.50;6183632;23;20063;-68
2022/10/11 00:11:59;;;;;;;6.47;2.90;;;;;;;-145.18;100.00;46658.44;6183097;23;20041;-68
2022/10/11 00:14:26;;;;;;;10.57;3.33;;;;;;;-145.18;100.00;46652.59;6182987;23;20279;-68
2022/10/11 00:16:52;;;;;;;9.63;3.70;;;;;;;-145.18;100.00;46652.59;6182825;23;20010;-68
2022/10/11 00:19:17;;;;;;;10.97;2.77;;;;;;;-145.18;100.00;46652.59;6183607;23;20581;-68
2022/10/11 00:21:43;;;;;;;16.80;3.13;;;;;;;-145.18;100.00;46650.63;6182739;23;20746;-68
2022/10/11 00:24:09;;;;;;;14.10;3.20;;;;;;;-145.18;100.00;46652.59;6183469;23;20015;-68
2022/10/11 00:26:35;;;;;;;14.37;3.23;;;;;;;-145.18;100.00;46650.63;6183119;23;20060;-68
2022/10/11 00:29:00;;;;;;;8.13;3.23;;;;;;;-145.18;100.00;46648.69;6182441;23;20672;-68
2022/10/11 00:31:25;;;;;;;9.10;2.53;;;;;;;-145.18;100.00;46648.69;6182666;23;20068;-68
2022/10/11 00:33:52;;;;;;;9.97;2.33;;;;;;;-145.18;100.00;46652.59;6183442;23;20457;-68
2022/10/11 00:36:18;;;;;;;7.03;2.00;;;;;;;-145.18;100.00;46652.59;6182775;23;20009;-68
2022/10/11 00:38:44;;;;;;;8.77;3.23;;;;;;;-145.18;100.00;46652.59;6182805;23;20703;-68
2022/10/11 00:41:09;;;;;;;5.17;1.80;;;;;;;-145.18;100.00;46654.53;6183331;23;20001;-68
2022/10/11 00:43:36;;;;;;;9.13;2.90;;;;;;;-145.18;100.00;46654.53;6183010;23;20005;-68
2022/10/11 00:46:16;;;;;;;103.17;6.80;;;;;;;-145.18;100.00;46656.50;6183381;23;20005;-68
2022/10/11 00:48:48;;;;;;;6.50;2.47;;;;;;;-145.18;100.00;46652.59;6183052;23;20290;-68
2022/10/11 00:51:31;;;;;;;4.80;1.97;;;;;;;-145.18;100.00;46652.59;6182537;23;20246;-69
2022/10/11 00:54:00;;;;;;;3.00;1.93;;;;;;;-145.18;100.00;46656.50;6183420;23;20219;-68
2022/10/11 00:56:31;;;;;;;9.30;2.40;;;;;;;-145.18;100.00;46658.44;6182619;23;20313;-68
2022/10/11 00:59:01;;;;;;;10.47;4.33;;;;;;;-145.18;100.00;46656.50;6183362;23;20254;-68
2022/10/11 01:01:26;;;;;;;12.27;3.00;;;;;;;-145.18;100.00;46652.59;6182275;23;20234;-69
2022/10/11 01:03:52;;;;;;;13.70;3.13;;;;;;;-145.18;100.00;46658.44;6182766;23;20546;-69
2022/10/11 01:06:17;;;;;;;6.53;2.47;;;;;;;-145.18;100.00;46650.63;6182966;23;20714;-68
2022/10/11 01:08:43;;;;;;;12.97;3.60;;;;;;;-145.18;100.00;46662.34;6182872;23;20100;-68
2022/10/11 01:11:14;;;;;;;17.10;3.70;;;;;;;-145.18;100.00;46652.59;6182856;23;20013;-68
2022/10/11 01:13:57;;;;;;;9.87;3.13;;;;;;;-145.18;100.00;46654.53;6182576;23;20028;-68
2022/10/11 01:16:45;;;;;;;13.73;3.03;;;;;;;-145.18;100.00;46656.50;6182349;23;20223;-68
2022/10/11 01:19:24;;;;;;;10.77;3.20;;;;;;;-145.18;100.00;46654.53;6182551;23;20261;-68
2022/10/11 01:22:01;;;;;;;11.60;3.13;;;;;;;-145.18;100.00;46654.53;6182197;23;20301;-68
2022/10/11 01:24:51;;;;;;;10.77;2.93;;;;;;;-145.18;100.00;46658.44;6182690;23;20265;-69
2022/10/11 01:27:45;;;;;;;12.03;4.57;;;;;;;-145.18;100.00;46656.50;6182661;23;20226;-68
2022/10/11 01:30:17;;;;;;;8.63;2.60;;;;;;;-145.18;100.00;46656.50;6183031;23;20246;-68
2022/10/11 01:32:47;;;;;;;10.97;4.47;;;;;;;-145.18;100.00;46652.59;6181810;23;20707;-68
2022/10/11 01:35:19;;;;;;;9.37;2.60;;;;;;;-145.18;100.00;46658.44;6182888;23;20340;-68
2022/10/11 01:37:54;;;;;;;15.13;2.80;;;;;;;-145.18;100.00;46656.50;6181691;23;20274;-68
2022/10/11 01:40:26;;;;;;;15.27;2.95;;;;;;;-145.18;100.00;46656.50;6183081;23;20791;-68
2022/10/11 01:42:54;;;;;;;5.90;2.07;;;;;;;-145.18;100.00;46652.59;6182416;23;19997;-68
2022/10/11 01:45:20;;;;;;;10.93;2.43;;;;;;;-145.18;100.00;46652.59;6182393;23;20692;-68
2022/10/11 01:47:46;;;;;;;11.60;2.70;;;;;;;-145.18;100.00;46652.59;6181069;23;20222;-68
2022/10/11 01:50:37;;;;;;;6.73;2.20;;;;;;;-145.18;100.00;46658.44;6180950;23;20707;-68
2022/10/11 01:53:17;;;;;;;4.67;1.67;;;;;;;-145.18;100.00;46654.53;6182006;23;20027;-68
2022/10/11 01:56:03;;;;;;;8.70;2.10;;;;;;;-145.18;100.00;46658.44;6182043;23;20731;-68
2022/10/11 01:58:53;;;;;;;10.40;1.45;;;;;;;-145.18;100.00;46656.50;6165380;23;20292;-68
2022/10/11 02:01:41;;;;;;;3.63;1.90;;;;;;;-145.18;100.00;46664.31;6181419;23;20035;-69
2022/10/11 02:04:26;;;;;;;2.43;1.20;;;;;;;-145.18;100.00;46658.44;6165939;23;20703;-68
2022/10/11 02:06:59;;;;;;;2.00;1.10;;;;;;;-145.18;100.00;46658.44;6181479;23;20660;-69
2022/10/11 02:09:34;;;;;;;14.27;1.40;;;;;;;-145.18;100.00;46656.50;6182348;23;20231;-69
2022/10/11 02:12:06;;;;;;;2.43;1.13;;;;;;;-145.18;100.00;46660.41;6180946;23;20277;-69
2022/10/11 02:14:36;;;;;;;2.10;1.40;;;;;;;-145.18;100.00;46658.44;6181260;23;20231;-69
2022/10/11 02:17:07;;;;;;;3.43;1.40;;;;;;;-145.18;100.00;46664.31;6182148;23;20230;-69
2022/10/11 02:19:48;;;;;;;3.53;1.27;;;;;;;-145.18;100.00;46656.50;6181841;23;20262;-69
2022/10/11 02:22:31;;;;;;;2.80;1.30;;;;;;;-145.18;100.00;46654.53;6181664;23;20234;-69
2022/10/11 02:25:01;;;;;;;3.37;1.77;;;;;;;-145.18;100.00;46658.44;6182161;23;20227;-69
2022/10/11 02:27:32;;;;;;;3.97;1.20;;;;;;;-145.18;100.00;46660.41;6181991;23;20227;-69
2022/10/11 02:30:01;;;;;;;2.17;1.27;;;;;;;-145.18;100.00;46658.44;6182224;23;20296;-69
2022/10/11 02:32:29;;;;;;;3.40;1.50;;;;;;;-145.18;100.00;46656.50;6181686;23;20231;-69
2022/10/11 02:34:57;;;;;;;3.77;1.10;;;;;;;-145.18;100.00;46660.41;6181941;23;20250;-69
2022/10/11 02:37:29;;;;;;;3.77;1.50;;;;;;;-145.18;100.00;46658.44;6181181;23;20689;-69
2022/10/11 02:40:05;;;;;;;6.17;1.37;;;;;;;-145.18;100.00;46658.44;6182068;23;20235;-69
2022/10/11 02:42:37;;;;;;;1.93;1.10;;;;;;;-145.18;100.00;46658.44;6181478;23;20231;-69
2022/10/11 02:45:13;;;;;;;4.53;1.23;;;;;;;-145.18;100.00;46660.41;6181598;23;20227;-69
2022/10/11 02:47:40;;;;;;;3.08;1.10;;;;;;;-145.18;100.00;46656.50;6181242;23;20239;-69
2022/10/11 02:50:06;;;;;;;4.37;1.50;;;;;;;-145.18;100.00;46658.44;6181698;23;20031;-69
2022/10/11 02:52:31;;;;;;;20.57;2.77;;;;;;;-145.18;100.00;46662.34;6183027;23;20664;-69
2022/10/11 02:54:56;;;;;;;8.70;1.77;;;;;;;-145.18;100.00;46658.44;6184141;23;20005;-69
2022/10/11 02:57:22;;;;;;;21.73;1.93;;;;;;;-145.18;100.00;46662.34;6183082;23;20036;-69
2022/10/11 02:59:47;;;;;;;4.27;1.77;;;;;;;-145.18;100.00;46660.41;6183527;23;20132;-69
2022/10/11 03:02:13;;;;;;;4.67;1.90;;;;;;;-145.18;100.00;46666.25;6162812;23;20652;-69
2022/10/11 03:04:38;;;;;;;8.23;1.70;;;;;;;-145.18;100.00;46662.34;6208318;23;20056;-69
2022/10/11 03:07:04;;;;;;;2.33;1.10;;;;;;;-145.18;100.00;46660.41;6213198;23;20499;-69
2022/10/11 03:09:29;;;;;;;31.57;2.13;;;;;;;-145.18;100.00;46658.44;6213974;23;20062;-69
2022/10/11 03:11:54;;;;;;;3.27;1.23;;;;;;;-145.18;100.00;46660.41;6213833;23;20063;-69
2022/10/11 03:14:20;;;;;;;6.20;1.73;;;;;;;-145.18;100.00;46660.41;6214029;23;20012;-69
2022/10/11 03:16:45;;;;;;;7.03;2.17;;;;;;;-145.18;100.00;46660.41;6214602;23;20012;-69
2022/10/11 03:19:11;;;;;;;4.43;2.07;;;;;;;-145.18;100.00;46664.31;6213492;23;20016;-69
2022/10/11 03:21:36;;;;;;;8.17;2.03;;;;;;;-145.18;100.00;46664.31;6214162;23;20009;-69
2022/10/11 03:24:02;;;;;;;12.30;2.67;;;;;;;-145.18;100.00;46660.41;6213841;23;20009;-69
2022/10/11 03:26:27;;;;;;;8.53;2.37;;;;;;;-145.18;100.00;46660.41;6214199;23;20015;-69
2022/10/11 03:28:53;;;;;;;8.10;2.23;;;;;;;-145.18;100.00;46658.44;6213780;23;20013;-69
2022/10/11 03:31:19;;;;;;;6.03;2.17;;;;;;;-145.18;100.00;46660.41;6213607;23;20661;-69
2022/10/11 03:33:44;;;;;;;6.13;1.93;;;;;;;-145.18;100.00;46664.31;6214134;23;20008;-69
2022/10/11 03:36:10;;;;;;;8.40;2.40;;;;;;;-145.18;100.00;46662.34;6213121;23;20342;-69
2022/10/11 03:38:35;;;;;;;15.57;2.87;;;;;;;-145.18;100.00;46664.31;6212724;23;20008;-69
2022/10/11 03:41:01;;;;;;;6.80;2.07;;;;;;;-145.18;100.00;46658.44;6213580;23;20012;-69
2022/10/11 03:43:26;;;;;;;5.77;2.47;;;;;;;-145.18;100.00;46658.44;6212218;23;20015;-69
2022/10/11 03:45:51;;;;;;;4.10;2.20;;;;;;;-145.18;100.00;46660.41;6213786;23;20570;-69
2022/10/11 03:48:17;;;;;;;7.00;3.17;;;;;;;-145.18;100.00;46664.31;6212793;23;20039;-69
2022/10/11 03:50:42;;;;;;;7.67;2.40;;;;;;;-145.18;100.00;46662.34;6213728;23;20016;-69
2022/10/11 03:53:07;;;;;;;32.33;2.73;;;;;;;-145.18;100.00;46664.31;6212849;23;20005;-69
2022/10/11 03:55:33;;;;;;;21.60;2.07;;;;;;;-145.18;100.00;46660.41;6213738;23;20012;-69
2022/10/11 03:57:58;;;;;;;17.43;2.47;;;;;;;-145.18;100.00;46662.34;6212735;23;20609;-69
2022/10/11 04:00:24;;;;;;;19.20;2.23;;;;;;;-145.18;100.00;46658.44;6210259;23;20009;-69
2022/10/11 04:02:49;;;;;;;30.40;2.60;;;;;;;-145.18;100.00;46662.34;6211599;23;20044;-69
2022/10/11 04:05:14;;;;;;;4.03;1.70;;;;;;;-145.18;100.00;46658.44;6213045;23;20005;-69
2022/10/11 04:07:40;;;;;;;4.83;2.50;;;;;;;-145.18;100.00;46654.53;6212287;23;20019;-69
2022/10/11 04:10:06;;;;;;;7.50;2.23;;;;;;;-145.18;100.00;46656.50;6212419;23;20024;-69
2022/10/11 04:12:32;;;;;;;6.23;3.33;;;;;;;-145.18;100.00;46658.44;6213233;23;20015;-69
2022/10/11 04:14:57;;;;;;;5.63;2.87;;;;;;;-145.18;100.00;46652.59;6213332;23;20015;-70
2022/10/11 04:17:22;;;;;;;6.60;2.10;;;;;;;-145.18;100.00;46660.41;6213338;23;20008;-70
2022/10/11 04:19:48;;;;;;;9.23;2.77;;;;;;;-145.18;100.00;46656.50;6213582;23;20040;-70
2022/10/11 04:22:13;;;;;;;5.50;2.27;;;;;;;-145.18;100.00;46658.44;6212919;23;20008;-70
2022/10/11 04:24:38;;;;;;;4.53;2.10;;;;;;;-145.18;100.00;46656.50;6213806;23;20134;-69
2022/10/11 04:27:04;;;;;;;8.70;2.50;;;;;;;-145.18;100.00;46656.50;6213116;23;20016;-69
2022/10/11 04:29:29;;;;;;;9.13;2.50;;;;;;;-145.18;100.00;46654.53;6212736;23;20007;-70
2022/10/11 04:31:54;;;;;;;4.30;2.30;;;;;;;-145.18;100.00;46656.50;6213892;23;20036;-70
2022/10/11 04:34:20;;;;;;;5.10;2.57;;;;;;;-145.18;100.00;46654.53;6212594;23;20012;-70
2022/10/11 04:36:45;;;;;;;8.83;2.83;;;;;;;-145.18;100.00;46652.59;6213795;23;20132;-70
2022/10/11 04:39:11;;;;;;;5.90;2.53;;;;;;;-145.18;100.00;46656.50;6212913;23;20008;-70
2022/10/11 04:41:37;;;;;;;5.97;2.47;;;;;;;-145.18;100.00;46654.53;6213481;23;20017;-70
2022/10/11 04:44:03;;;;;;;7.47;3.00;;;;;;;-145.18;100.00;46652.59;6213452;23;20288;-70
2022/10/11 04:46:28;;;;;;;14.20;3.10;;;;;;;-145.18;100.00;46656.50;6210798;23;20422;-70
2022/10/11 04:48:54;;;;;;;8.30;3.00;;;;;;;-145.18;100.00;46652.59;6213150;23;20008;-70
2022/10/11 04:51:20;;;;;;;5.50;2.93;;;;;;;-145.18;100.00;46662.34;6212469;23;20009;-70
2022/10/11 04:53:46;;;;;;;5.00;2.60;;;;;;;-145.18;100.00;46658.44;6236652;23;20012;-70
2022/10/11 04:56:13;;;;;;;4.03;2.13;;;;;;;-145.18;100.00;46658.44;6211320;23;20369;-70
2022/10/11 04:58:40;;;;;;;5.07;1.97;;;;;;;-145.18;100.00;46658.44;6212392;23;20313;-70
2022/10/11 05:01:06;;;;;;;5.23;2.20;;;;;;;-145.18;100.00;46656.50;6213537;23;20222;-70
2022/10/11 05:03:32;;;;;;;8.77;2.67;;;;;;;-145.18;100.00;46656.50;6212624;23;20305;-70
2022/10/11 05:05:57;;;;;;;5.67;2.77;;;;;;;-145.18;100.00;46654.53;6213140;23;20246;-70
2022/10/11 05:08:23;;;;;;;6.63;2.57;;;;;;;-145.18;100.00;46656.50;6211550;23;20593;-70
2022/10/11 05:10:58;;;;;;;11.40;2.87;;;;;;;-145.18;100.00;46656.50;6213664;23;20008;-70
2022/10/11 05:13:25;;;;;;;7.05;3.25;;;;;;;-145.18;100.00;46656.50;6212100;23;20091;-70
2022/10/11 05:15:50;;;;;;;6.27;2.70;;;;;;;-145.18;100.00;46654.53;6212890;23;20429;-70
2022/10/11 05:18:16;;;;;;;4.80;2.40;;;;;;;-145.18;100.00;46656.50;6212102;23;20246;-70
2022/10/11 05:20:41;;;;;;;6.47;2.40;;;;;;;-145.18;100.00;46660.41;6213094;23;20012;-70
2022/10/11 05:23:07;;;;;;;6.93;2.70;;;;;;;-145.18;100.00;46652.59;6212302;23;20016;-70
2022/10/11 05:25:32;;;;;;;6.20;2.80;;;;;;;-145.18;100.00;46654.53;6212818;23;20012;-70
2022/10/11 05:27:58;;;;;;;6.27;2.80;;;;;;;-145.18;100.00;46658.44;6212220;23;20085;-71
2022/10/11 05:30:23;;;;;;;4.03;2.40;;;;;;;-145.18;100.00;46660.41;6212081;23;20418;-71
2022/10/11 05:32:48;;;;;;;3.37;1.93;;;;;;;-145.18;100.00;46656.50;6211987;23;20079;-70
2022/10/11 05:35:14;;;;;;;3.13;2.10;;;;;;;-145.18;100.00;46656.50;6211964;23;20012;-71
2022/10/11 05:37:39;;;;;;;5.73;2.17;;;;;;;-145.18;100.00;46654.53;6211564;23;20043;-71
2022/10/11 05:40:05;;;;;;;4.17;2.03;;;;;;;-145.18;100.00;46654.53;6212518;23;20059;-71
2022/10/11 05:42:31;;;;;;;42.40;5.67;;;;;;;-145.18;100.00;46656.50;6212311;23;20008;-71
2022/10/11 05:44:56;;;;;;;5.40;2.10;;;;;;;-145.18;100.00;46654.53;6212724;23;20233;-70
2022/10/11 05:47:21;;;;;;;7.27;2.40;;;;;;;-145.18;100.00;46656.50;6212308;23;20430;-70
2022/10/11 05:49:47;;;;;;;6.33;2.07;;;;;;;-145.18;100.00;46652.59;6212525;23;20482;-70
2022/10/11 05:52:12;;;;;;;7.27;2.43;;;;;;;-145.18;100.00;46660.41;6212927;23;20341;-71
2022/10/11 05:54:38;;;;;;;8.57;2.97;;;;;;;-145.18;100.00;46660.41;6212213;23;20030;-71
2022/10/11 05:57:03;;;;;;;8.20;2.80;;;;;;;-145.18;100.00;46662.34;6212642;23;20027;-71
2022/10/11 05:59:28;;;;;;;7.10;3.20;;;;;;;-145.18;100.00;46654.53;6212113;23;20004;-71
2022/10/11 06:01:54;;;;;;;8.67;3.77;;;;;;;-145.18;100.00;46654.53;6212737;23;20019;-71
2022/10/11 06:04:19;;;;;;;11.50;3.83;;;;;;;-145.18;100.00;46658.44;6211573;23;20040;-71
2022/10/11 06:06:45;;;;;;;6.70;3.27;;;;;;;-145.18;100.00;46658.44;6212917;23;20008;-71
2022/10/11 06:09:11;;;;;;;7.63;3.43;;;;;;;-145.18;100.00;46658.44;6211795;23;20007;-71
2022/10/11 06:11:37;;;;;;;9.37;2.93;;;;;;;-145.18;100.00;46660.41;6213004;23;20005;-71
2022/10/11 06:14:02;;;;;;;7.20;3.50;;;;;;;-145.18;100.00;46656.50;6212404;23;20231;-71
2022/10/11 06:16:27;;;;;;;5.20;3.00;;;;;;;-145.18;100.00;46666.25;6212695;23;20005;-71
2022/10/11 06:18:54;;;;;;;8.37;3.10;;;;;;;-145.18;100.00;46654.53;6211881;23;20009;-71
2022/10/11 06:21:20;;;;;;;8.53;3.50;;;;;;;-145.18;100.00;46662.34;6212367;23;20426;-71
2022/10/11 06:23:50;;;;;;;9.67;3.93;;;;;;;-145.18;100.00;46656.50;6212301;23;20250;-71
2022/10/11 06:26:16;;;;;;;9.03;3.93;;;;;;;-145.18;100.00;46654.53;6212058;23;20072;-71
2022/10/11 06:28:41;;;;;;;7.90;3.50;;;;;;;-145.18;100.00;46660.41;6212516;23;20547;-71
2022/10/11 06:31:07;;;;;;;17.73;4.13;;;;;;;-145.18;100.00;46654.53;6212185;23;20269;-71
2022/10/11 06:33:33;;;;;;;9.43;3.80;;;;;;;-145.18;100.00;46652.59;6211803;23;20016;-71
2022/10/11 06:36:04;;;;;;;8.73;3.60;;;;;;;-145.18;100.00;46660.41;6212777;23;20088;-71
2022/10/11 06:38:29;;;;;;;9.83;3.90;;;;;;;-145.18;100.00;46656.50;6211946;23;20250;-71
2022/10/11 06:40:55;;;;;;;9.20;3.50;;;;;;;-145.18;100.00;46656.50;6210929;23;20246;-71
2022/10/11 06:43:21;;;;;;;5.87;3.60;;;;;;;-145.18;100.00;46656.50;6212012;23;20000;-72
2022/10/11 06:45:47;;;;;;;15.53;4.43;;;;;;;-145.18;100.00;46658.44;6211173;23;20009;-71
2022/10/11 06:48:12;;;;;;;8.03;3.97;;;;;;;-145.18;100.00;46652.59;6209600;23;20292;-72
2022/10/11 06:50:37;;;;;;;9.67;4.87;;;;;;;-145.18;100.00;46654.53;6210553;23;20013;-71
2022/10/11 06:53:05;;;;;;;11.90;4.00;;;;;;;-145.18;100.00;46656.50;6211351;23;20634;-71
2022/10/11 06:55:31;;;;;;;14.50;4.30;;;;;;;-145.18;100.00;46658.44;6212138;23;20430;-72
2022/10/11 06:57:56;;;;;;;11.83;4.10;;;;;;;-145.18;100.00;46658.44;6210991;23;20257;-72
2022/10/11 07:00:22;;;;;;;9.97;3.70;;;;;;;-145.18;100.00;46654.53;6210639;23;20011;-72
2022/10/11 07:02:48;;;;;;;6.40;3.10;;;;;;;-145.18;100.00;46658.44;6211622;23;20031;-72
2022/10/11 07:05:14;;;;;;;6.67;3.07;;;;;;;-145.18;100.00;46658.44;6211719;23;20031;-72
2022/10/11 07:07:39;;;;;;;5.63;3.20;;;;;;;-145.18;100.00;46656.50;6212175;23;20555;-72
2022/10/11 07:10:05;;;;;;;5.87;3.07;;;;;;;-145.18;100.00;46660.41;6212085;23;20020;-72
2022/10/11 07:12:31;;;;;;;9.63;4.03;;;;;;;-145.18;100.00;46658.44;6211859;23;20087;-72
2022/10/11 07:14:56;;;;;;;14.67;5.70;;;;;;;-145.18;100.00;46658.44;6211897;23;20269;-72
2022/10/11 07:17:21;;;;;;;15.93;6.00;;;;;;;-145.18;100.00;46654.53;6212090;23;20016;-72
2022/10/11 07:19:47;;;;;;;11.67;4.80;;;;;;;-145.18;100.00;46654.53;6211790;23;20008;-72
2022/10/11 07:22:12;;;;;;;14.30;5.17;;;;;;;-145.18;100.00;46656.50;6212256;23;20394;-72
2022/10/11 07:24:37;;;;;;;13.73;4.80;;;;;;;-145.18;100.00;46660.41;6211739;23;20012;-71
2022/10/11 07:27:03;;;;;;;11.70;5.67;;;;;;;-145.18;100.00;46656.50;6212324;23;20009;-72
2022/10/11 07:29:28;;;;;;;14.70;6.00;;;;;;;-145.18;100.00;46656.50;6211415;23;20008;-72
2022/10/11 07:31:54;;;;;;;17.00;5.77;;;;;;;-145.18;100.00;46658.44;6212549;23;20047;-72
2022/10/11 07:34:21;;;;;;;16.90;5.60;;;;;;;-145.18;100.00;46652.59;6210813;23;20452;-72
2022/10/11 07:36:47;;;;;;;15.97;7.13;;;;;;;-145.18;100.00;46652.59;6212767;23;20019;-72
2022/10/11 07:39:12;;;;;;;20.63;6.63;;;;;;;-145.18;100.00;46652.59;6213479;23;20325;-72
2022/10/11 07:41:37;;;;;;;15.97;6.13;;;;;;;-145.18;100.00;46652.59;6212270;23;20100;-72
2022/10/11 07:44:03;;;;;;;14.77;5.80;;;;;;;-145.18;100.00;46656.50;6213938;23;20008;-72
2022/10/11 07:46:29;;;;;;;14.50;6.50;;;;;;;-145.18;100.00;46656.50;6213921;23;20005;-72
2022/10/11 07:48:55;;;;;;;17.47;6.40;;;;;;;-145.18;100.00;46654.53;6213756;23;20032;-72
2022/10/11 07:51:22;;;;;;;18.80;6.07;;;;;;;-145.18;100.00;46654.53;6213041;23;20254;-72
2022/10/11 07:53:50;;;;;;;18.07;7.07;;;;;;;-145.18;100.00;46658.44;6213382;23;20012;-72
2022/10/11 07:56:21;;;;;;;23.27;6.87;;;;;;;-145.18;100.00;46652.59;6213929;23;20272;-72
2022/10/11 07:58:52;;;;;;;17.77;6.13;;;;;;;-145.18;100.00;46654.53;6213494;23;20359;-72
2022/10/11 08:01:18;;;;;;;20.17;6.80;;;;;;;-145.18;100.00;46654.53;6213245;23;20219;-72
2022/10/11 08:03:43;;;;;;;23.33;7.23;;;;;;;-145.18;100.00;46648.69;6212939;23;20321;-72
2022/10/11 08:06:12;;;;;;;21.43;7.30;;;;;;;-145.18;100.00;46650.63;6213786;23;20016;-72
2022/10/11 08:08:37;;;;;;;17.97;5.93;;;;;;;-145.18;100.00;46654.53;6212730;23;20016;-72
2022/10/11 08:11:03;;;;;;;17.93;7.10;;;;;;;-145.18;100.00;46652.59;6213802;23;20943;-72
2022/10/11 08:13:29;;;;;;;21.27;7.37;;;;;;;-145.18;100.00;46656.50;6213185;23;20004;-73
2022/10/11 08:15:54;;;;;;;21.03;6.73;;;;;;;-145.18;100.00;46654.53;6214028;23;20321;-72
2022/10/11 08:18:20;;;;;;;24.93;6.53;;;;;;;-145.18;100.00;46652.59;6212803;23;20685;-72
2022/10/11 08:20:46;;;;;;;19.87;7.00;;;;;;;-145.18;100.00;46656.50;6213764;23;20016;-72
2022/10/11 08:23:11;;;;;;;16.33;6.20;;;;;;;-145.18;100.00;46656.50;6211427;23;20012;-72
2022/10/11 08:25:39;;;;;;;16.63;5.80;;;;;;;-145.18;100.00;46652.59;6213548;23;20032;-72
2022/10/11 08:28:05;;;;;;;21.33;6.43;;;;;;;-145.18;100.00;46656.50;6212270;23;20015;-72
2022/10/11 08:30:30;;;;;;;16.10;6.27;;;;;;;-145.18;100.00;46658.44;6213659;23;20305;-72
2022/10/11 08:32:55;;;;;;;18.73;6.07;;;;;;;-145.18;100.00;46656.50;6213473;23;20513;-72
2022/10/11 08:35:21;;;;;;;23.97;7.00;;;;;;;-145.18;100.00;46652.59;6213214;23;20399;-72
2022/10/11 08:37:46;;;;;;;19.97;7.27;;;;;;;-145.18;100.00;46656.50;6213729;23;20086;-73
2022/10/11 08:40:17;;;;;;;12.73;5.93;;;;;;;-145.18;100.00;46662.34;6235694;23;20346;-72
2022/10/11 08:43:05;;;;;;;16.73;5.40;;;;;;;-145.18;100.00;46660.41;6213587;23;20473;-72
2022/10/11 08:45:41;;;;;;;20.07;5.83;;;;;;;-145.18;100.00;46660.41;6213283;23;20387;-72
2022/10/11 08:48:33;;;;;;;19.80;5.37;;;;;;;-145.18;100.00;46662.34;6211866;23;20000;-72
2022/10/11 08:50:58;;;;;;;23.77;4.83;;;;;;;-145.18;100.00;46664.31;6205314;23;20012;-72
2022/10/11 08:53:47;;;;;;;15.90;4.77;;;;;;;-145.18;100.00;46666.25;6212524;23;20020;-73
2022/10/11 08:56:14;;;;;;;18.43;5.20;;;;;;;-145.18;100.00;46668.22;6213302;23;20081;-73
2022/10/11 08:58:46;;;;;;;22.90;4.87;;;;;;;-145.18;100.00;46670.16;6212647;23;20077;-73
2022/10/11 09:01:17;;;;;;;22.07;4.77;;;;;;;-145.18;100.00;46674.06;6212916;23;20000;-72
2022/10/11 09:03:45;;;;;;;14.93;3.60;;;;;;;-145.18;100.00;46676.03;6212597;23;20012;-72
2022/10/11 09:06:56;;;;;;;18.83;4.10;;;;;;;-145.18;100.00;46676.03;6212770;23;19997;-72
2022/10/11 09:09:21;;;;;;;23.70;3.87;;;;;;;-145.18;100.00;46679.94;6188360;23;20004;-72
2022/10/11 09:12:02;;;;;;;13.13;3.30;;;;;;;-145.18;100.00;46681.88;6212733;23;20011;-72
2022/10/11 09:14:48;;;;;;;14.00;3.37;;;;;;;-145.18;100.00;46681.88;6212470;23;20009;-72
2022/10/11 09:17:24;;;;;;;22.13;4.88;;;;;;;-145.18;100.00;46676.03;6212422;23;20028;-72
2022/10/11 09:20:02;;;;;;;13.60;2.77;;;;;;;-145.18;100.00;46640.88;6212706;23;20001;-72
2022/10/11 09:22:57;;;;;;;11.63;2.37;;;;;;;-145.18;100.00;46580.31;6212944;23;20000;-72
2022/10/11 09:25:49;;;;;;;11.77;2.95;;;;;;;-145.18;100.00;46560.78;6212795;23;20004;-72
2022/10/11 09:28:20;;;;;;;21.37;2.50;;;;;;;-145.18;100.00;46568.59;6212602;23;20341;-72
2022/10/11 09:30:53;;;;;;;12.00;2.73;;;;;;;-145.18;100.00;46578.34;6213167;23;20008;-72
2022/10/11 09:33:35;;;;;;;15.07;2.33;;;;;;;-145.18;100.00;46586.16;6212381;23;20055;-72
2022/10/11 09:36:24;;;;;;;18.20;3.17;;;;;;;-145.18;100.00;46595.94;6212911;23;20460;-72
2022/10/11 09:38:59;;;;;;;15.97;2.53;;;;;;;-145.18;100.00;46615.47;6180623;23;20634;-72
2022/10/11 09:41:35;;;;;;;15.20;2.60;;;;;;;-145.18;100.00;46627.19;6212889;23;20055;-72
2022/10/11 09:44:00;;;;;;;12.60;3.20;;;;;;;-145.18;100.00;46652.59;6212244;23;20008;-72
2022/10/11 09:46:35;;;;;;;14.63;2.50;;;;;;;-145.18;100.00;46707.28;6212664;23;20096;-71
2022/10/11 09:49:06;;;;;;;13.77;2.57;;;;;;;-145.18;100.00;46703.38;6212100;23;20047;-71
2022/10/11 09:51:33;;;;;;;11.10;1.93;;;;;;;-145.18;100.00;46738.53;6212853;23;20426;-72
2022/10/11 09:54:04;;;;;;;13.30;2.77;;;;;;;-145.18;100.00;46730.72;6212281;23;19996;-71
2022/10/11 09:56:31;;;;;;;8.13;2.13;;;;;;;-145.18;100.00;46720.94;6212270;23;20008;-71
2022/10/11 09:59:06;;;;;;;14.40;2.90;;;;;;;-145.18;100.00;46760.00;6212108;23;20071;-72
2022/10/11 10:01:32;;;;;;;13.10;2.20;;;;;;;-145.18;100.00;46746.34;6212961;23;20009;-72
2022/10/11 10:04:13;;;;;;;12.27;2.97;;;;;;;-145.18;100.00;46728.75;6212190;23;20024;-71
2022/10/11 10:06:39;;;;;;;14.00;2.20;;;;;;;-145.18;100.00;46761.97;6212533;23;20019;-71
2022/10/11 10:09:25;;;;;;;18.60;3.27;;;;;;;-145.18;100.00;46894.81;6212265;23;20734;-71
2022/10/11 10:11:51;;;;;;;9.35;2.08;;;;;;;-145.18;100.00;47099.91;6212606;23;20004;-71
2022/10/11 10:14:24;;;;;;;12.77;2.87;;;;;;;-145.18;100.00;47070.63;6211843;23;20086;-71
2022/10/11 10:17:00;;;;;;;19.50;2.60;;;;;;;-145.18;100.00;47312.88;6212847;23;20341;-71
2022/10/11 10:19:25;;;;;;;8.17;1.73;;;;;;;-145.18;100.00;47406.63;6212092;23;20004;-71
2022/10/11 10:21:54;;;;;;;12.77;2.40;;;;;;;-145.18;100.00;47404.69;6212823;23;20009;-71
2022/10/11 10:24:37;;;;;;;13.67;1.80;;;;;;;-145.18;100.00;47359.75;6211955;23;20017;-71
2022/10/11 10:27:15;;;;;;;14.63;1.93;;;;;;;-145.18;100.00;47324.59;6212705;23;20015;-71
2022/10/11 10:29:41;;;;;;;12.07;2.53;;;;;;;-145.18;100.00;47297.22;6212112;23;20051;-71
2022/10/11 10:32:20;;;;;;;15.17;2.47;;;;;;;-145.18;100.00;47303.09;6212854;23;20012;-71
2022/10/11 10:35:04;;;;;;;12.50;3.53;;;;;;;-145.18;100.00;47279.66;6211721;23;20067;-71
2022/10/11 10:37:42;;;;;;;11.73;2.37;;;;;;;-145.18;100.00;47271.84;6212026;23;20004;-71
2022/10/11 10:40:13;;;;;;;8.57;2.27;;;;;;;-145.18;100.00;47267.94;6212118;23;20005;-71
2022/10/11 10:42:38;;;;;;;10.00;2.10;;;;;;;-145.18;100.00;47277.69;6211901;23;20020;-71
2022/10/11 10:45:06;;;;;;;10.10;2.90;;;;;;;-145.18;100.00;47262.06;6211881;23;20043;-71
2022/10/11 10:48:16;;;;;;;11.70;2.30;;;;;;;-145.18;100.00;47273.78;6212455;23;20004;-71
2022/10/11 10:50:54;;;;;;;7.90;1.93;;;;;;;-145.18;100.00;47260.13;6148964;23;20033;-71
2022/10/11 10:53:28;;;;;;;7.83;1.83;;;;;;;-145.18;100.00;47254.25;6208133;23;20460;-71
2022/10/11 10:56:09;;;;;;;11.47;2.33;;;;;;;-145.18;100.00;47262.06;6212572;23;20083;-71
2022/10/11 10:59:06;;;;;;;12.63;2.50;;;;;;;-145.18;100.00;47252.31;6211579;23;20421;-71
2022/10/11 11:01:37;;;;;;;10.65;2.63;;;;;;;-145.18;100.00;47242.53;6212342;23;20012;-71
2022/10/11 11:04:20;;;;;;;8.63;2.10;;;;;;;-145.18;100.00;47234.72;6211601;23;20468;-71
2022/10/11 11:06:58;;;;;;;15.17;2.63;;;;;;;-145.18;100.00;47217.13;6212363;23;20004;-71
2022/10/11 11:09:37;;;;;;;6.63;1.77;;;;;;;-145.18;100.00;47223.00;6208957;23;20078;-71
2022/10/11 11:12:23;;;;;;;14.87;2.63;;;;;;;-145.18;100.00;47246.44;6212694;23;20009;-71
2022/10/11 11:14:57;;;;;;;;;;;;;;;-145.18;100.00;47215.19;6211826;23;20012;-71
2022/10/11 11:17:56;;;;;;;13.43;2.23;;;;;;;-145.18;100.00;47260.13;6213560;23;19908;-71
2022/10/11 11:20:45;;;;;;;23.57;3.17;;;;;;;-145.18;100.00;47232.75;6213397;23;20004;-71